Airfield :
LOGIN :

Register | Disclaimer

   EN    FR    IT 

 










Legend :    VFR   Marginal VFR   IFR   Intensive IFR   Very Intensive IFR
Visi :
Ceiling :
>= 8 km
>= 3000ft
5 to 8 km
1000 to 3000 ft
1500m to 5 km
500 to 1000 ft
800 to 1500m
200 to 500 ft
< 800m
< 200 ft
Symbols :   Thunderstorms  Fog  Heavy snow  Heavy precipitations  Wind > 20 kt
SIGMETs :     Misc.  Thunderstorms  Icing  Turbulence  Mountain Waves  Volcanic Ashes







- Airport Elevation : 1989 ft
- IATA code : KLV


LKKV - Karlovy Vary

CURRENT METAR :
  • 200830Z 04005KT 350V070 9999 -RA FEW028 15/11 Q1002

EXPIRED METARs :
  • 200800Z 05004KT 010V070 CAVOK 15/11 Q1002
  • 200730Z 05004KT 020V110 CAVOK 14/11 Q1002
  • 200700Z 04006KT CAVOK 13/10 Q1002
  • 200630Z 04004KT CAVOK 13/10 Q1002
  • 200600Z 04004KT 010V070 CAVOK 12/10 Q1002

TAF TAF LKKV
Valid from the 20 at 06:00 until the 21 at 12:00 UTC


200500Z 2006/2112 05006KT CAVOK
BECMG 2008/2010 15008KT 7000 BKN020
TEMPO 2010/2021 2500 TSRA BR BKN007 BKN015CB
PROB30
TEMPO 2010/2112 1400 RA BR BKN003
No reported NOTAMs for that airfield.



MET'MAP, your aeronautical weather chart ! - Copyright ORBIFLY December 2007 - Disclaimer

ORBIFLY MET'MAP TEAM :

Programming & Development : Alexandra Zaïnal
Concept & Development : Baudouin d'Aumeries
Co-Development & Prog : Marc-Olivier Méhu
Technical & hardware support : Manuel Goepfert

Contact : metmap@orbifly.com




SOURCES & CREDITS :

   NOAA